createdAt,value
2019-03-21T00:01:33.909Z,82.60
2019-03-21T00:04:07.842Z,83.20
2019-03-21T00:06:37.209Z,82.70
2019-03-21T00:09:12.398Z,83.40
2019-03-21T00:12:05.821Z,84.00
2019-03-21T00:14:50.445Z,84.60
2019-03-21T00:17:28.290Z,84.50
2019-03-21T00:19:57.674Z,84.00
2019-03-21T00:22:27.111Z,84.20
2019-03-21T00:24:56.503Z,84.30
2019-03-21T00:27:25.890Z,84.30
2019-03-21T00:29:55.271Z,84.80
2019-03-21T00:32:25.856Z,85.10
2019-03-21T00:34:55.188Z,85.40
2019-03-21T00:37:24.472Z,85.80
2019-03-21T00:39:53.804Z,85.90
2019-03-21T00:42:23.168Z,85.90
2019-03-21T00:44:52.556Z,85.70
2019-03-21T00:47:21.896Z,85.10
2019-03-21T00:49:51.184Z,85.00
2019-03-21T00:52:20.575Z,85.40
2019-03-21T00:54:49.869Z,86.50
2019-03-21T00:57:19.192Z,86.90
2019-03-21T00:59:48.498Z,87.70
2019-03-21T01:02:17.824Z,87.80
2019-03-21T01:04:47.140Z,86.90
2019-03-21T01:07:16.518Z,86.80
2019-03-21T01:09:45.849Z,85.70
2019-03-21T01:12:15.156Z,85.60
2019-03-21T01:14:44.479Z,85.60
2019-03-21T01:17:13.792Z,86.00
2019-03-21T01:19:43.106Z,86.20
2019-03-21T01:22:12.474Z,86.20
2019-03-21T01:24:41.788Z,86.30
2019-03-21T01:27:11.112Z,86.60
2019-03-21T01:29:40.407Z,86.80
2019-03-21T01:32:09.731Z,86.80
2019-03-21T01:34:39.041Z,86.80
2019-03-21T01:37:08.362Z,86.40
2019-03-21T01:39:37.659Z,86.80
2019-03-21T01:42:06.992Z,85.50
2019-03-21T01:44:41.033Z,86.10
2019-03-21T01:47:10.276Z,87.00
2019-03-21T01:49:39.694Z,86.70
2019-03-21T01:52:09.016Z,88.30
2019-03-21T01:54:38.352Z,87.20
2019-03-21T01:57:13.816Z,87.90
2019-03-21T01:59:43.135Z,86.20
2019-03-21T02:02:12.439Z,86.90
2019-03-21T02:04:41.832Z,87.40
2019-03-21T02:07:11.170Z,87.00
2019-03-21T02:09:40.471Z,87.10
2019-03-21T02:12:09.947Z,86.80
2019-03-21T02:14:39.350Z,87.50
2019-03-21T02:17:08.646Z,87.70
2019-03-21T02:19:37.982Z,88.00
2019-03-21T02:22:07.280Z,87.60
2019-03-21T02:24:36.616Z,86.70
2019-03-21T02:27:05.904Z,86.90
2019-03-21T02:29:35.243Z,87.10
2019-03-21T02:32:04.550Z,88.10
2019-03-21T02:34:33.953Z,88.00
2019-03-21T02:37:03.366Z,87.40
2019-03-21T02:39:32.832Z,87.40
2019-03-21T02:42:02.160Z,88.50
2019-03-21T02:44:31.455Z,88.40
2019-03-21T02:47:00.858Z,88.00
2019-03-21T02:49:30.152Z,88.70
2019-03-21T02:51:59.675Z,88.10
2019-03-21T02:54:28.991Z,87.90
2019-03-21T02:56:58.305Z,88.30
2019-03-21T02:59:27.633Z,88.10
2019-03-21T03:01:56.943Z,88.00
2019-03-21T03:04:26.402Z,88.70
2019-03-21T03:06:55.704Z,88.00
2019-03-21T03:09:25.027Z,87.80
2019-03-21T03:11:54.324Z,87.70
2019-03-21T03:14:23.661Z,88.50
2019-03-21T03:16:52.983Z,88.00
2019-03-21T03:19:22.367Z,89.00
2019-03-21T03:21:51.804Z,88.50
2019-03-21T03:24:23.335Z,88.40
2019-03-21T03:26:52.648Z,88.30
2019-03-21T03:29:21.952Z,88.70
2019-03-21T03:31:51.364Z,89.00
2019-03-21T03:34:20.912Z,88.70
2019-03-21T03:36:50.262Z,88.40
2019-03-21T03:39:19.564Z,88.60
2019-03-21T03:41:48.959Z,89.70
2019-03-21T03:44:18.300Z,89.50
2019-03-21T03:46:47.600Z,90.20
2019-03-21T03:49:17.006Z,90.30
2019-03-21T03:51:46.336Z,89.80
2019-03-21T03:54:15.702Z,89.00
2019-03-21T03:56:46.541Z,89.50
2019-03-21T03:59:15.267Z,88.60
2019-03-21T04:01:44.739Z,88.50
2019-03-21T04:04:14.206Z,89.00
2019-03-21T04:06:43.597Z,89.50
2019-03-21T04:09:13.106Z,89.80
2019-03-21T04:11:42.532Z,89.80
2019-03-21T04:14:11.827Z,90.20
2019-03-21T04:16:41.152Z,90.00
2019-03-21T04:19:10.461Z,90.40
2019-03-21T04:21:39.852Z,90.10
2019-03-21T04:24:09.245Z,90.10
2019-03-21T04:26:38.715Z,90.10
2019-03-21T04:29:08.112Z,90.00
2019-03-21T04:31:37.488Z,89.60
2019-03-21T04:34:09.799Z,89.20
2019-03-21T04:36:39.116Z,89.70
2019-03-21T04:39:09.987Z,90.00
2019-03-21T04:41:39.269Z,89.80
2019-03-21T04:44:08.522Z,90.00
2019-03-21T04:46:37.816Z,90.10
2019-03-21T04:49:07.134Z,90.30
2019-03-21T04:51:36.433Z,90.40
2019-03-21T04:54:05.757Z,90.20
2019-03-21T04:56:35.120Z,90.60
2019-03-21T04:59:05.533Z,90.60
2019-03-21T05:01:34.850Z,90.80
2019-03-21T05:04:04.255Z,90.80
2019-03-21T05:06:33.569Z,90.80
2019-03-21T05:09:03.148Z,90.40
2019-03-21T05:11:32.564Z,90.70
2019-03-21T05:14:01.891Z,90.60
2019-03-21T05:16:31.211Z,90.80
2019-03-21T05:19:00.604Z,90.80
2019-03-21T05:21:30.002Z,91.10
2019-03-21T05:23:59.333Z,91.10
2019-03-21T05:26:28.640Z,91.00
2019-03-21T05:28:57.973Z,91.10
2019-03-21T05:31:30.378Z,90.90
2019-03-21T05:33:59.734Z,90.70
2019-03-21T05:36:30.662Z,91.00
2019-03-21T05:38:59.189Z,90.90
2019-03-21T05:41:28.441Z,91.00
2019-03-21T05:44:03.473Z,91.00
2019-03-21T05:46:33.233Z,90.90
2019-03-21T05:49:02.537Z,91.30
2019-03-21T05:51:31.873Z,90.90
2019-03-21T05:54:01.200Z,91.20
2019-03-21T05:56:30.504Z,91.40
2019-03-21T05:58:59.851Z,91.30
2019-03-21T06:01:30.235Z,91.20
2019-03-21T06:03:59.668Z,91.30
2019-03-21T06:06:46.517Z,91.30
2019-03-21T06:09:21.737Z,91.20
2019-03-21T06:11:57.202Z,91.30
2019-03-21T06:14:28.841Z,91.30
2019-03-21T06:16:58.152Z,91.50
2019-03-21T06:19:39.543Z,91.40
2019-03-21T06:22:23.728Z,91.20
2019-03-21T06:24:58.898Z,91.10
2019-03-21T06:27:29.072Z,90.80
2019-03-21T06:29:58.553Z,90.60
2019-03-21T06:32:28.627Z,90.80
2019-03-21T06:34:58.147Z,90.80
2019-03-21T06:37:28.859Z,90.90
2019-03-21T06:39:58.386Z,91.10
2019-03-21T06:42:47.058Z,90.90
2019-03-21T06:45:16.427Z,90.90
2019-03-21T06:47:45.747Z,91.20
2019-03-21T06:50:15.221Z,91.00
2019-03-21T06:52:44.544Z,90.90
2019-03-21T06:55:13.844Z,90.90
2019-03-21T06:57:43.164Z,90.60
2019-03-21T07:00:12.903Z,90.50
2019-03-21T07:02:42.242Z,90.40
2019-03-21T07:05:11.981Z,90.20
2019-03-21T07:08:00.732Z,90.40
2019-03-21T07:10:30.033Z,89.40
2019-03-21T07:12:59.809Z,88.70
2019-03-21T07:15:29.131Z,88.30
2019-03-21T07:17:58.451Z,88.50
2019-03-21T07:20:27.843Z,88.60
2019-03-21T07:22:57.167Z,88.40
2019-03-21T07:25:26.466Z,88.00
2019-03-21T07:28:15.129Z,87.40
2019-03-21T07:30:44.422Z,86.50
2019-03-21T07:33:13.727Z,87.30
2019-03-21T07:35:43.073Z,86.50
2019-03-21T07:38:12.363Z,86.30
2019-03-21T07:40:41.755Z,84.00
2019-03-21T07:43:11.047Z,83.40
2019-03-21T07:45:40.367Z,82.50
2019-03-21T07:48:09.810Z,82.20
2019-03-21T07:50:39.128Z,81.80
2019-03-21T07:53:08.447Z,81.50
2019-03-21T07:55:37.760Z,81.10
2019-03-21T07:58:07.076Z,80.40
2019-03-21T08:00:36.393Z,79.40
2019-03-21T08:03:05.685Z,78.30
2019-03-21T08:05:40.409Z,77.20
2019-03-21T08:08:06.008Z,76.90
2019-03-21T08:10:35.341Z,75.10
2019-03-21T08:13:04.820Z,74.40
2019-03-21T08:15:34.134Z,73.40
2019-03-21T08:18:03.540Z,72.30
2019-03-21T08:20:32.922Z,71.20
2019-03-21T08:23:02.246Z,70.40
2019-03-21T08:25:31.635Z,70.70
2019-03-21T08:28:00.937Z,69.90
2019-03-21T08:30:34.476Z,67.50
2019-03-21T08:33:04.846Z,67.40
2019-03-21T08:35:34.144Z,66.00
2019-03-21T08:38:03.473Z,65.10
2019-03-21T08:40:32.824Z,64.90
2019-03-21T08:43:02.112Z,64.30
2019-03-21T08:45:31.430Z,61.80
2019-03-21T08:48:20.160Z,59.70
2019-03-21T08:50:49.468Z,59.00
2019-03-21T08:53:18.769Z,58.20
2019-03-21T08:55:48.103Z,56.30
2019-03-21T08:58:17.405Z,56.50
2019-03-21T09:00:46.715Z,56.40
2019-03-21T09:03:16.043Z,54.40
2019-03-21T09:05:45.338Z,54.20
2019-03-21T09:08:14.663Z,53.30
2019-03-21T09:10:43.990Z,51.90
2019-03-21T09:13:13.321Z,49.40
2019-03-21T09:15:42.641Z,50.80
2019-03-21T09:18:11.952Z,49.80
2019-03-21T09:20:41.270Z,48.30
2019-03-21T09:23:10.588Z,48.60
2019-03-21T09:25:39.899Z,47.20
2019-03-21T09:28:09.243Z,47.60
2019-03-21T09:30:38.564Z,46.40
2019-03-21T09:33:07.869Z,46.00
2019-03-21T09:35:37.202Z,44.50
2019-03-21T09:38:06.495Z,43.70
2019-03-21T09:40:35.822Z,42.60
2019-03-21T09:43:05.130Z,42.50
2019-03-21T09:45:34.461Z,42.40
2019-03-21T09:48:03.835Z,41.00
2019-03-21T09:50:33.173Z,39.20
2019-03-21T09:53:02.475Z,38.90
2019-03-21T09:55:31.880Z,38.10
2019-03-21T09:58:01.182Z,36.80
2019-03-21T10:00:37.320Z,34.80
2019-03-21T10:03:06.967Z,33.60
2019-03-21T10:05:36.296Z,32.80
2019-03-21T10:08:05.883Z,30.40
2019-03-21T10:10:35.364Z,29.80
2019-03-21T10:13:05.688Z,28.20
2019-03-21T10:15:34.219Z,28.60
2019-03-21T10:18:03.713Z,27.60
2019-03-21T10:20:33.007Z,26.10
2019-03-21T10:23:02.327Z,26.20
2019-03-21T10:25:31.722Z,26.10
2019-03-21T10:28:01.022Z,25.60
2019-03-21T10:30:33.155Z,24.50
2019-03-21T10:33:05.659Z,25.00
2019-03-21T10:35:35.031Z,23.70
2019-03-21T10:38:05.210Z,24.30
2019-03-21T10:40:33.804Z,24.10
2019-03-21T10:43:03.130Z,23.30
2019-03-21T10:45:32.613Z,23.10
2019-03-21T10:48:02.043Z,21.90
2019-03-21T10:50:33.887Z,21.20
2019-03-21T10:53:03.387Z,21.80
2019-03-21T10:55:32.769Z,21.30
2019-03-21T10:58:04.560Z,21.10
2019-03-21T11:00:33.931Z,20.30
2019-03-21T11:03:03.250Z,20.10
2019-03-21T11:05:32.576Z,20.30
2019-03-21T11:08:01.940Z,20.40
2019-03-21T11:10:31.264Z,19.30
2019-03-21T11:13:00.602Z,18.60
2019-03-21T11:15:29.898Z,18.70
2019-03-21T11:17:59.211Z,19.60
2019-03-21T11:20:31.235Z,19.90
2019-03-21T11:23:00.821Z,19.20
2019-03-21T11:25:31.351Z,18.50
2019-03-21T11:28:00.812Z,18.60
2019-03-21T11:30:37.321Z,17.80
2019-03-21T11:33:06.874Z,19.20
2019-03-21T11:35:36.412Z,18.10
2019-03-21T11:38:06.349Z,18.60
2019-03-21T11:40:35.185Z,18.00
2019-03-21T11:43:06.830Z,18.00
2019-03-21T11:45:36.378Z,17.10
2019-03-21T11:48:06.023Z,17.80
2019-03-21T11:50:35.344Z,17.70
2019-03-21T11:53:05.033Z,16.80
2019-03-21T11:55:34.374Z,17.00
2019-03-21T11:58:03.758Z,16.30
2019-03-21T12:00:42.687Z,18.00
2019-03-21T12:03:04.502Z,17.20
2019-03-21T12:05:34.874Z,16.70
2019-03-21T12:08:04.344Z,15.90
2019-03-21T12:10:33.733Z,16.50
2019-03-21T12:13:03.029Z,15.30
2019-03-21T12:15:32.422Z,16.70
2019-03-21T12:18:01.761Z,16.30
2019-03-21T12:20:32.400Z,18.00
2019-03-21T12:23:01.709Z,16.10
2019-03-21T12:25:31.040Z,15.60
2019-03-21T12:28:01.642Z,16.60
2019-03-21T12:30:36.232Z,16.20
2019-03-21T12:33:05.879Z,17.20
2019-03-21T12:35:35.347Z,15.80
2019-03-21T12:38:05.426Z,15.40
2019-03-21T12:40:34.905Z,16.10
2019-03-21T12:43:04.514Z,15.80
2019-03-21T12:45:33.908Z,15.80
2019-03-21T12:48:03.240Z,16.30
2019-03-21T12:50:32.562Z,16.10
2019-03-21T12:53:01.880Z,16.40
2019-03-21T12:55:31.189Z,16.40
2019-03-21T12:58:01.057Z,18.50
2019-03-21T13:00:35.833Z,17.10
2019-03-21T13:03:05.569Z,16.50
2019-03-21T13:05:35.004Z,17.20
2019-03-21T13:08:04.509Z,16.50
2019-03-21T13:10:33.871Z,17.00
2019-03-21T13:13:03.543Z,18.20
2019-03-21T13:15:32.882Z,18.10
2019-03-21T13:18:02.251Z,18.90
2019-03-21T13:20:31.581Z,17.90
2019-03-21T13:23:00.890Z,16.70
2019-03-21T13:25:30.207Z,18.40
2019-03-21T13:27:59.575Z,17.90
2019-03-21T13:30:28.976Z,16.20
2019-03-21T13:32:59.313Z,15.90
2019-03-21T13:35:32.945Z,16.00
2019-03-21T13:37:59.689Z,16.00
2019-03-21T13:40:29.016Z,16.30
2019-03-21T13:42:58.317Z,15.40
2019-03-21T13:45:27.644Z,14.60
2019-03-21T13:47:57.015Z,15.20
2019-03-21T13:50:26.364Z,15.30
2019-03-21T13:53:04.279Z,16.70
2019-03-21T13:55:26.762Z,16.10
2019-03-21T13:57:56.073Z,16.60
2019-03-21T14:00:25.551Z,15.50
2019-03-21T14:02:54.917Z,16.10
2019-03-21T14:05:24.420Z,15.40
2019-03-21T14:07:53.796Z,15.60
2019-03-21T14:10:23.126Z,15.70
2019-03-21T14:12:52.527Z,15.00
2019-03-21T14:15:21.820Z,15.90
2019-03-21T14:17:52.128Z,14.20
2019-03-21T14:20:21.498Z,15.60
2019-03-21T14:22:50.843Z,15.90
2019-03-21T14:25:21.700Z,15.70
2019-03-21T14:27:51.000Z,15.50
2019-03-21T14:30:20.345Z,16.40
2019-03-21T14:32:49.632Z,16.10
2019-03-21T14:35:18.976Z,16.90
2019-03-21T14:37:48.309Z,16.80
2019-03-21T14:40:17.887Z,17.40
2019-03-21T14:42:47.232Z,17.00
2019-03-21T14:45:17.045Z,16.90
2019-03-21T14:47:46.516Z,17.50
2019-03-21T14:50:16.775Z,18.00
2019-03-21T14:52:45.391Z,19.40
2019-03-21T14:55:15.146Z,19.00
2019-03-21T14:57:44.626Z,19.90
2019-03-21T15:00:18.340Z,21.40
2019-03-21T15:02:47.740Z,21.20
2019-03-21T15:05:17.368Z,22.20
2019-03-21T15:07:46.691Z,22.50
2019-03-21T15:10:17.937Z,23.20
2019-03-21T15:12:47.252Z,22.60
2019-03-21T15:15:16.914Z,22.30
2019-03-21T15:17:58.923Z,22.00
2019-03-21T15:20:29.280Z,22.20
2019-03-21T15:22:58.660Z,23.00
2019-03-21T15:25:28.027Z,23.20
2019-03-21T15:27:57.379Z,24.40
2019-03-21T15:30:26.710Z,23.80
2019-03-21T15:32:56.063Z,24.20
2019-03-21T15:35:25.444Z,24.00
2019-03-21T15:37:54.768Z,24.50
2019-03-21T15:40:24.099Z,25.30
2019-03-21T15:42:53.430Z,25.70
2019-03-21T15:45:23.920Z,26.00
2019-03-21T15:47:53.541Z,25.80
2019-03-21T15:50:37.779Z,26.60
2019-03-21T15:53:07.490Z,26.80
2019-03-21T15:55:36.879Z,26.50
2019-03-21T15:58:06.389Z,26.80
2019-03-21T16:00:45.041Z,27.10
2019-03-21T16:03:14.431Z,26.80
2019-03-21T16:05:43.906Z,27.60
2019-03-21T16:08:13.379Z,27.70
2019-03-21T16:10:42.680Z,28.10
2019-03-21T16:13:12.029Z,27.30
2019-03-21T16:15:41.333Z,28.00
2019-03-21T16:18:10.736Z,27.50
2019-03-21T16:20:40.046Z,27.30
2019-03-21T16:23:09.415Z,27.10
2019-03-21T16:25:38.763Z,27.00
2019-03-21T16:28:08.059Z,28.10
2019-03-21T16:30:37.420Z,27.30
2019-03-21T16:33:08.046Z,28.10
2019-03-21T16:35:37.383Z,28.70
2019-03-21T16:38:06.682Z,28.70
2019-03-21T16:40:36.045Z,28.50
2019-03-21T16:43:05.996Z,29.00
2019-03-21T16:45:35.541Z,29.50
2019-03-21T16:48:05.399Z,29.80
2019-03-21T16:50:34.698Z,30.00
2019-03-21T16:53:04.107Z,29.50
2019-03-21T16:55:33.498Z,30.10
2019-03-21T16:58:03.112Z,30.00
2019-03-21T17:00:33.276Z,29.70
2019-03-21T17:03:02.734Z,29.50
2019-03-21T17:05:32.072Z,30.00
2019-03-21T17:08:10.545Z,30.10
2019-03-21T17:10:32.462Z,31.20
2019-03-21T17:13:04.720Z,32.10
2019-03-21T17:15:32.964Z,33.10
2019-03-21T17:18:03.409Z,32.20
2019-03-21T17:20:32.938Z,33.20
2019-03-21T17:23:02.719Z,31.00
2019-03-21T17:25:32.133Z,33.90
2019-03-21T17:28:01.545Z,34.50
2019-03-21T17:30:30.870Z,36.10
2019-03-21T17:33:00.194Z,36.70
2019-03-21T17:35:29.586Z,37.10
2019-03-21T17:37:58.881Z,36.50
2019-03-21T17:40:28.227Z,37.30
2019-03-21T17:42:57.522Z,37.80
2019-03-21T17:45:26.850Z,38.90
2019-03-21T17:47:56.216Z,40.60
2019-03-21T17:50:25.655Z,40.80
2019-03-21T17:52:56.006Z,42.60
2019-03-21T17:55:25.301Z,44.40
2019-03-21T17:57:54.632Z,44.80
2019-03-21T18:00:34.832Z,44.00
2019-03-21T18:03:04.687Z,45.40
2019-03-21T18:05:33.997Z,46.10
2019-03-21T18:08:03.485Z,47.40
2019-03-21T18:10:35.987Z,48.40
2019-03-21T18:13:05.819Z,50.00
2019-03-21T18:15:35.154Z,50.50
2019-03-21T18:18:04.831Z,50.00
2019-03-21T18:20:34.128Z,50.10
2019-03-21T18:23:03.461Z,49.70
2019-03-21T18:25:32.828Z,48.30
2019-03-21T18:28:02.262Z,49.90
2019-03-21T18:30:31.554Z,50.10
2019-03-21T18:33:00.912Z,51.40
2019-03-21T18:35:30.240Z,51.70
2019-03-21T18:37:59.671Z,52.10
2019-03-21T18:40:29.008Z,51.90
2019-03-21T18:43:17.644Z,52.10
2019-03-21T18:45:46.960Z,51.20
2019-03-21T18:48:17.323Z,52.50
2019-03-21T18:50:46.655Z,52.70
2019-03-21T18:53:15.939Z,52.90
2019-03-21T18:55:45.537Z,53.30
2019-03-21T18:58:14.822Z,54.40
2019-03-21T19:00:44.160Z,55.50
2019-03-21T19:03:13.446Z,54.70
2019-03-21T19:05:42.760Z,55.00
2019-03-21T19:08:12.109Z,54.20
2019-03-21T19:10:41.481Z,55.20
2019-03-21T19:13:10.797Z,55.60
2019-03-21T19:15:42.785Z,55.80
2019-03-21T19:18:12.090Z,54.00
2019-03-21T19:20:41.986Z,55.80
2019-03-21T19:23:11.327Z,56.60
2019-03-21T19:25:40.688Z,55.80
2019-03-21T19:28:10.024Z,55.90
2019-03-21T19:30:39.353Z,56.80
2019-03-21T19:33:08.675Z,57.20
2019-03-21T19:35:37.989Z,57.40
2019-03-21T19:38:07.320Z,57.20
2019-03-21T19:40:36.847Z,57.00
2019-03-21T19:43:06.232Z,58.00
2019-03-21T19:45:35.552Z,58.10
2019-03-21T19:48:05.109Z,57.70
2019-03-21T19:50:34.397Z,58.40
2019-03-21T19:53:03.801Z,58.40
2019-03-21T19:55:33.142Z,59.90
2019-03-21T19:58:02.610Z,60.30
2019-03-21T20:00:31.941Z,59.50
2019-03-21T20:03:01.274Z,59.80
2019-03-21T20:05:30.605Z,61.30
2019-03-21T20:07:59.927Z,60.60
2019-03-21T20:10:29.327Z,61.70
2019-03-21T20:12:58.753Z,59.30
2019-03-21T20:15:28.048Z,60.00
2019-03-21T20:17:57.458Z,61.30
2019-03-21T20:20:26.844Z,61.90
2019-03-21T20:22:56.244Z,61.00
2019-03-21T20:25:25.707Z,61.10
2019-03-21T20:27:55.113Z,60.90
2019-03-21T20:30:24.403Z,60.50
2019-03-21T20:32:53.797Z,61.20
2019-03-21T20:35:23.126Z,61.60
2019-03-21T20:37:52.512Z,63.40
2019-03-21T20:40:21.953Z,64.20
2019-03-21T20:42:51.290Z,65.20
2019-03-21T20:45:21.016Z,65.10
2019-03-21T20:47:50.409Z,64.40
2019-03-21T20:50:19.840Z,64.20
2019-03-21T20:52:49.312Z,64.20
2019-03-21T20:55:19.037Z,64.20
2019-03-21T20:57:49.560Z,64.90
2019-03-21T21:00:23.261Z,63.60
2019-03-21T21:02:53.594Z,63.90
2019-03-21T21:05:23.415Z,64.10
2019-03-21T21:07:53.319Z,63.50
2019-03-21T21:10:22.712Z,64.60
2019-03-21T21:12:53.096Z,66.40
2019-03-21T21:15:22.499Z,67.00
2019-03-21T21:17:51.795Z,67.30
2019-03-21T21:20:21.275Z,67.10
2019-03-21T21:22:50.625Z,67.80
2019-03-21T21:25:19.980Z,67.70
2019-03-21T21:27:50.239Z,67.30
2019-03-21T21:30:21.587Z,67.10
2019-03-21T21:32:50.951Z,68.90
2019-03-21T21:35:20.307Z,68.90
2019-03-21T21:37:49.603Z,67.80
2019-03-21T21:40:19.248Z,68.40
2019-03-21T21:42:48.618Z,67.10
2019-03-21T21:45:18.573Z,67.00
2019-03-21T21:47:47.904Z,67.50
2019-03-21T21:50:18.070Z,67.50
2019-03-21T21:52:47.362Z,68.40
2019-03-21T21:55:17.128Z,68.50
2019-03-21T21:57:46.545Z,70.00
2019-03-21T22:00:20.663Z,70.70
2019-03-21T22:02:50.048Z,70.30
2019-03-21T22:05:19.611Z,70.40
2019-03-21T22:07:48.904Z,71.40
2019-03-21T22:10:18.291Z,70.50
2019-03-21T22:12:47.676Z,70.90
2019-03-21T22:15:17.276Z,70.70
2019-03-21T22:17:46.575Z,70.70
2019-03-21T22:20:16.528Z,71.60
2019-03-21T22:22:46.301Z,73.10
2019-03-21T22:25:15.770Z,72.10
2019-03-21T22:27:45.126Z,73.90
2019-03-21T22:30:15.905Z,72.50
2019-03-21T22:32:45.204Z,72.20
2019-03-21T22:35:14.570Z,72.50
2019-03-21T22:37:43.957Z,72.60
2019-03-21T22:40:15.255Z,72.90
2019-03-21T22:42:44.574Z,73.10
2019-03-21T22:45:15.308Z,73.50
2019-03-21T22:47:44.708Z,73.30
2019-03-21T22:50:15.646Z,74.20
2019-03-21T22:52:44.851Z,75.20
2019-03-21T22:55:14.601Z,75.20
2019-03-21T22:57:44.093Z,76.10
2019-03-21T23:00:18.250Z,76.30
2019-03-21T23:02:49.233Z,77.40
2019-03-21T23:05:19.607Z,75.90
2019-03-21T23:07:48.898Z,76.50
2019-03-21T23:10:18.395Z,77.10
2019-03-21T23:12:47.779Z,76.90
2019-03-21T23:15:17.214Z,76.50
2019-03-21T23:17:46.534Z,75.90
2019-03-21T23:20:16.464Z,76.00
2019-03-21T23:22:58.162Z,76.50
2019-03-21T23:25:27.489Z,75.80
2019-03-21T23:27:56.882Z,76.70
2019-03-21T23:30:26.275Z,76.70
2019-03-21T23:32:55.601Z,76.40
2019-03-21T23:35:25.093Z,77.10
2019-03-21T23:37:54.390Z,77.10
2019-03-21T23:40:23.815Z,77.60
2019-03-21T23:42:53.140Z,76.90
2019-03-21T23:45:22.451Z,77.00
2019-03-21T23:47:51.744Z,77.20
2019-03-21T23:50:22.139Z,77.30
2019-03-21T23:52:51.429Z,78.20
2019-03-21T23:55:20.772Z,78.50
2019-03-21T23:57:50.137Z,78.90
